sensor_id;sensor_type;location;lat;lon;timestamp;P1;durP1;ratioP1;P2;durP2;ratioP2
34573;SDS011;20809;49.594;8.734;2023-08-06T00:01:13;5.28;;;3.50;;
34573;SDS011;20809;49.594;8.734;2023-08-06T00:04:16;4.70;;;3.42;;
34573;SDS011;20809;49.594;8.734;2023-08-06T00:07:18;5.00;;;3.13;;
34573;SDS011;20809;49.594;8.734;2023-08-06T00:10:21;3.65;;;3.03;;
34573;SDS011;20809;49.594;8.734;2023-08-06T00:13:23;2.92;;;2.70;;
34573;SDS011;20809;49.594;8.734;2023-08-06T00:16:26;4.35;;;3.35;;
34573;SDS011;20809;49.594;8.734;2023-08-06T00:19:28;5.70;;;5.07;;
34573;SDS011;20809;49.594;8.734;2023-08-06T00:22:33;6.70;;;5.10;;
34573;SDS011;20809;49.594;8.734;2023-08-06T00:25:36;5.13;;;4.30;;
34573;SDS011;20809;49.594;8.734;2023-08-06T00:28:39;3.60;;;3.30;;
34573;SDS011;20809;49.594;8.734;2023-08-06T00:31:41;11.75;;;3.92;;
34573;SDS011;20809;49.594;8.734;2023-08-06T00:34:43;5.70;;;3.03;;
34573;SDS011;20809;49.594;8.734;2023-08-06T00:37:48;3.40;;;2.75;;
34573;SDS011;20809;49.594;8.734;2023-08-06T00:40:50;4.32;;;2.67;;
34573;SDS011;20809;49.594;8.734;2023-08-06T00:43:53;4.57;;;2.42;;
34573;SDS011;20809;49.594;8.734;2023-08-06T00:49:56;3.15;;;2.92;;
34573;SDS011;20809;49.594;8.734;2023-08-06T00:52:58;3.67;;;2.55;;
34573;SDS011;20809;49.594;8.734;2023-08-06T00:59:08;3.42;;;2.25;;
34573;SDS011;20809;49.594;8.734;2023-08-06T01:02:12;4.90;;;2.17;;
34573;SDS011;20809;49.594;8.734;2023-08-06T01:05:13;3.15;;;2.42;;
34573;SDS011;20809;49.594;8.734;2023-08-06T01:14:30;3.45;;;2.17;;
34573;SDS011;20809;49.594;8.734;2023-08-06T01:17:45;3.15;;;2.08;;
34573;SDS011;20809;49.594;8.734;2023-08-06T01:20:48;4.10;;;1.85;;
34573;SDS011;20809;49.594;8.734;2023-08-06T01:23:52;2.30;;;1.83;;
34573;SDS011;20809;49.594;8.734;2023-08-06T01:26:57;2.95;;;1.90;;
34573;SDS011;20809;49.594;8.734;2023-08-06T01:33:43;5.78;;;1.70;;
34573;SDS011;20809;49.594;8.734;2023-08-06T01:36:48;5.90;;;1.65;;
34573;SDS011;20809;49.594;8.734;2023-08-06T01:39:53;4.53;;;1.80;;
34573;SDS011;20809;49.594;8.734;2023-08-06T01:42:55;2.15;;;1.70;;
34573;SDS011;20809;49.594;8.734;2023-08-06T01:45:56;2.45;;;1.67;;
34573;SDS011;20809;49.594;8.734;2023-08-06T01:48:58;6.03;;;1.65;;
34573;SDS011;20809;49.594;8.734;2023-08-06T01:52:00;2.80;;;1.40;;
34573;SDS011;20809;49.594;8.734;2023-08-06T01:55:01;1.77;;;1.50;;
34573;SDS011;20809;49.594;8.734;2023-08-06T01:58:06;3.03;;;1.42;;
34573;SDS011;20809;49.594;8.734;2023-08-06T02:01:08;4.18;;;2.05;;
34573;SDS011;20809;49.594;8.734;2023-08-06T02:04:10;4.53;;;2.33;;
34573;SDS011;20809;49.594;8.734;2023-08-06T02:07:12;2.15;;;1.63;;
34573;SDS011;20809;49.594;8.734;2023-08-06T02:10:13;2.20;;;1.55;;
34573;SDS011;20809;49.594;8.734;2023-08-06T02:13:15;3.22;;;1.60;;
34573;SDS011;20809;49.594;8.734;2023-08-06T02:16:17;3.22;;;1.88;;
34573;SDS011;20809;49.594;8.734;2023-08-06T02:19:19;2.20;;;2.00;;
34573;SDS011;20809;49.594;8.734;2023-08-06T02:22:21;4.57;;;1.85;;
34573;SDS011;20809;49.594;8.734;2023-08-06T02:25:23;4.03;;;1.60;;
34573;SDS011;20809;49.594;8.734;2023-08-06T02:28:25;3.22;;;2.72;;
34573;SDS011;20809;49.594;8.734;2023-08-06T02:31:27;2.63;;;1.40;;
34573;SDS011;20809;49.594;8.734;2023-08-06T02:34:28;2.70;;;1.73;;
34573;SDS011;20809;49.594;8.734;2023-08-06T02:37:31;5.70;;;2.70;;
34573;SDS011;20809;49.594;8.734;2023-08-06T02:40:34;1.88;;;1.40;;
34573;SDS011;20809;49.594;8.734;2023-08-06T02:43:36;3.53;;;1.77;;
34573;SDS011;20809;49.594;8.734;2023-08-06T02:46:38;2.92;;;1.52;;
34573;SDS011;20809;49.594;8.734;2023-08-06T02:49:39;2.05;;;1.63;;
34573;SDS011;20809;49.594;8.734;2023-08-06T02:52:41;4.55;;;1.48;;
34573;SDS011;20809;49.594;8.734;2023-08-06T02:55:48;2.20;;;1.70;;
34573;SDS011;20809;49.594;8.734;2023-08-06T02:58:49;3.50;;;1.80;;
34573;SDS011;20809;49.594;8.734;2023-08-06T03:01:51;2.08;;;1.77;;
34573;SDS011;20809;49.594;8.734;2023-08-06T03:04:53;1.92;;;1.80;;
34573;SDS011;20809;49.594;8.734;2023-08-06T03:07:55;4.35;;;1.88;;
34573;SDS011;20809;49.594;8.734;2023-08-06T03:10:57;4.82;;;2.05;;
34573;SDS011;20809;49.594;8.734;2023-08-06T03:13:59;3.75;;;1.92;;
34573;SDS011;20809;49.594;8.734;2023-08-06T03:17:00;3.10;;;1.77;;
34573;SDS011;20809;49.594;8.734;2023-08-06T03:20:02;2.03;;;1.80;;
34573;SDS011;20809;49.594;8.734;2023-08-06T03:23:04;4.13;;;1.70;;
34573;SDS011;20809;49.594;8.734;2023-08-06T03:26:06;2.17;;;1.52;;
34573;SDS011;20809;49.594;8.734;2023-08-06T03:29:08;3.45;;;1.73;;
34573;SDS011;20809;49.594;8.734;2023-08-06T03:32:10;3.42;;;2.95;;
34573;SDS011;20809;49.594;8.734;2023-08-06T03:35:11;4.35;;;1.70;;
34573;SDS011;20809;49.594;8.734;2023-08-06T03:38:12;2.72;;;1.80;;
34573;SDS011;20809;49.594;8.734;2023-08-06T03:41:14;2.08;;;1.42;;
34573;SDS011;20809;49.594;8.734;2023-08-06T03:44:19;5.43;;;2.78;;
34573;SDS011;20809;49.594;8.734;2023-08-06T03:47:21;4.82;;;1.80;;
34573;SDS011;20809;49.594;8.734;2023-08-06T03:50:22;3.25;;;1.50;;
34573;SDS011;20809;49.594;8.734;2023-08-06T03:53:23;2.22;;;1.40;;
34573;SDS011;20809;49.594;8.734;2023-08-06T03:56:25;2.08;;;1.48;;
34573;SDS011;20809;49.594;8.734;2023-08-06T03:59:26;2.85;;;1.60;;
34573;SDS011;20809;49.594;8.734;2023-08-06T04:02:27;1.60;;;1.50;;
34573;SDS011;20809;49.594;8.734;2023-08-06T04:05:30;3.75;;;1.27;;
34573;SDS011;20809;49.594;8.734;2023-08-06T04:08:33;2.15;;;1.20;;
34573;SDS011;20809;49.594;8.734;2023-08-06T04:14:35;4.35;;;1.20;;
34573;SDS011;20809;49.594;8.734;2023-08-06T04:17:37;3.40;;;1.23;;
34573;SDS011;20809;49.594;8.734;2023-08-06T04:20:45;2.58;;;1.20;;
34573;SDS011;20809;49.594;8.734;2023-08-06T04:23:49;3.75;;;1.40;;
34573;SDS011;20809;49.594;8.734;2023-08-06T04:26:50;5.32;;;2.38;;
34573;SDS011;20809;49.594;8.734;2023-08-06T04:29:51;3.28;;;1.35;;
34573;SDS011;20809;49.594;8.734;2023-08-06T04:32:51;2.72;;;1.67;;
34573;SDS011;20809;49.594;8.734;2023-08-06T04:35:55;2.80;;;1.98;;
34573;SDS011;20809;49.594;8.734;2023-08-06T04:38:56;3.10;;;1.83;;
34573;SDS011;20809;49.594;8.734;2023-08-06T04:41:56;2.70;;;1.90;;
34573;SDS011;20809;49.594;8.734;2023-08-06T04:44:57;4.82;;;1.98;;
34573;SDS011;20809;49.594;8.734;2023-08-06T04:47:58;4.93;;;2.07;;
34573;SDS011;20809;49.594;8.734;2023-08-06T04:50:58;3.47;;;1.73;;
34573;SDS011;20809;49.594;8.734;2023-08-06T04:53:59;2.88;;;1.65;;
34573;SDS011;20809;49.594;8.734;2023-08-06T04:57:00;8.60;;;1.90;;
34573;SDS011;20809;49.594;8.734;2023-08-06T05:00:00;1.77;;;1.30;;
34573;SDS011;20809;49.594;8.734;2023-08-06T05:03:01;4.75;;;2.13;;
34573;SDS011;20809;49.594;8.734;2023-08-06T05:06:02;2.97;;;1.50;;
34573;SDS011;20809;49.594;8.734;2023-08-06T05:09:03;2.83;;;1.20;;
34573;SDS011;20809;49.594;8.734;2023-08-06T05:12:04;2.38;;;1.25;;
34573;SDS011;20809;49.594;8.734;2023-08-06T05:15:06;3.97;;;1.23;;
34573;SDS011;20809;49.594;8.734;2023-08-06T05:18:07;1.38;;;1.08;;
34573;SDS011;20809;49.594;8.734;2023-08-06T05:21:07;1.08;;;1.00;;
34573;SDS011;20809;49.594;8.734;2023-08-06T05:24:08;5.90;;;1.87;;
34573;SDS011;20809;49.594;8.734;2023-08-06T05:27:09;3.73;;;1.40;;
34573;SDS011;20809;49.594;8.734;2023-08-06T05:30:09;3.80;;;1.20;;
34573;SDS011;20809;49.594;8.734;2023-08-06T05:33:10;2.63;;;1.05;;
34573;SDS011;20809;49.594;8.734;2023-08-06T05:36:11;3.70;;;0.90;;
34573;SDS011;20809;49.594;8.734;2023-08-06T05:39:11;1.60;;;0.95;;
34573;SDS011;20809;49.594;8.734;2023-08-06T05:42:12;1.55;;;0.70;;
34573;SDS011;20809;49.594;8.734;2023-08-06T05:45:13;3.13;;;0.88;;
34573;SDS011;20809;49.594;8.734;2023-08-06T05:48:14;3.40;;;1.50;;
34573;SDS011;20809;49.594;8.734;2023-08-06T05:51:15;1.75;;;0.88;;
34573;SDS011;20809;49.594;8.734;2023-08-06T05:57:18;2.38;;;0.85;;
34573;SDS011;20809;49.594;8.734;2023-08-06T06:00:19;1.55;;;0.70;;
34573;SDS011;20809;49.594;8.734;2023-08-06T06:03:20;2.63;;;1.13;;
34573;SDS011;20809;49.594;8.734;2023-08-06T06:06:21;2.33;;;1.00;;
34573;SDS011;20809;49.594;8.734;2023-08-06T06:09:22;12.13;;;1.98;;
34573;SDS011;20809;49.594;8.734;2023-08-06T06:12:22;2.88;;;1.10;;
34573;SDS011;20809;49.594;8.734;2023-08-06T06:15:24;2.92;;;1.38;;
34573;SDS011;20809;49.594;8.734;2023-08-06T06:18:25;1.37;;;0.93;;
34573;SDS011;20809;49.594;8.734;2023-08-06T06:21:25;2.90;;;0.90;;
34573;SDS011;20809;49.594;8.734;2023-08-06T06:24:26;2.50;;;1.45;;
34573;SDS011;20809;49.594;8.734;2023-08-06T06:27:27;2.80;;;1.27;;
34573;SDS011;20809;49.594;8.734;2023-08-06T06:30:30;1.85;;;0.88;;
34573;SDS011;20809;49.594;8.734;2023-08-06T06:33:31;2.38;;;0.88;;
34573;SDS011;20809;49.594;8.734;2023-08-06T06:36:31;2.53;;;0.90;;
34573;SDS011;20809;49.594;8.734;2023-08-06T06:39:32;2.57;;;0.70;;
34573;SDS011;20809;49.594;8.734;2023-08-06T06:45:34;2.03;;;0.87;;
34573;SDS011;20809;49.594;8.734;2023-08-06T06:48:34;4.10;;;1.43;;
34573;SDS011;20809;49.594;8.734;2023-08-06T06:51:38;2.92;;;1.92;;
34573;SDS011;20809;49.594;8.734;2023-08-06T06:54:38;10.30;;;0.87;;
34573;SDS011;20809;49.594;8.734;2023-08-06T06:57:39;0.97;;;0.67;;
34573;SDS011;20809;49.594;8.734;2023-08-06T07:00:39;1.77;;;0.57;;
34573;SDS011;20809;49.594;8.734;2023-08-06T07:03:40;3.33;;;1.52;;
34573;SDS011;20809;49.594;8.734;2023-08-06T07:06:40;3.80;;;0.83;;
34573;SDS011;20809;49.594;8.734;2023-08-06T07:09:41;1.13;;;0.70;;
34573;SDS011;20809;49.594;8.734;2023-08-06T07:12:42;2.40;;;0.50;;
34573;SDS011;20809;49.594;8.734;2023-08-06T07:15:42;2.93;;;0.60;;
34573;SDS011;20809;49.594;8.734;2023-08-06T07:18:43;2.67;;;0.87;;
34573;SDS011;20809;49.594;8.734;2023-08-06T07:21:43;1.73;;;1.50;;
34573;SDS011;20809;49.594;8.734;2023-08-06T07:24:44;3.53;;;0.50;;
34573;SDS011;20809;49.594;8.734;2023-08-06T07:27:45;1.57;;;0.57;;
34573;SDS011;20809;49.594;8.734;2023-08-06T07:30:48;4.60;;;0.95;;
34573;SDS011;20809;49.594;8.734;2023-08-06T07:33:49;1.83;;;1.10;;
34573;SDS011;20809;49.594;8.734;2023-08-06T07:36:49;11.20;;;1.70;;
34573;SDS011;20809;49.594;8.734;2023-08-06T07:39:50;2.42;;;0.50;;
34573;SDS011;20809;49.594;8.734;2023-08-06T07:42:51;1.40;;;0.40;;
34573;SDS011;20809;49.594;8.734;2023-08-06T07:45:51;0.70;;;0.47;;
34573;SDS011;20809;49.594;8.734;2023-08-06T07:48:52;0.87;;;0.40;;
34573;SDS011;20809;49.594;8.734;2023-08-06T07:51:53;1.52;;;0.40;;
34573;SDS011;20809;49.594;8.734;2023-08-06T07:54:56;2.13;;;0.82;;
34573;SDS011;20809;49.594;8.734;2023-08-06T07:57:56;3.13;;;0.57;;
34573;SDS011;20809;49.594;8.734;2023-08-06T08:00:57;2.72;;;0.50;;
34573;SDS011;20809;49.594;8.734;2023-08-06T08:04:00;1.75;;;0.30;;
34573;SDS011;20809;49.594;8.734;2023-08-06T08:07:01;1.17;;;0.50;;
34573;SDS011;20809;49.594;8.734;2023-08-06T08:13:05;1.65;;;0.85;;
34573;SDS011;20809;49.594;8.734;2023-08-06T08:16:06;1.50;;;0.40;;
34573;SDS011;20809;49.594;8.734;2023-08-06T08:19:09;2.53;;;0.33;;
34573;SDS011;20809;49.594;8.734;2023-08-06T08:22:10;0.93;;;0.50;;
34573;SDS011;20809;49.594;8.734;2023-08-06T08:25:12;1.27;;;0.40;;
34573;SDS011;20809;49.594;8.734;2023-08-06T08:28:13;0.35;;;0.35;;
34573;SDS011;20809;49.594;8.734;2023-08-06T08:31:14;1.70;;;0.30;;
34573;SDS011;20809;49.594;8.734;2023-08-06T08:34:16;1.33;;;0.28;;
34573;SDS011;20809;49.594;8.734;2023-08-06T08:37:16;0.50;;;0.43;;
34573;SDS011;20809;49.594;8.734;2023-08-06T08:40:17;0.77;;;0.30;;
34573;SDS011;20809;49.594;8.734;2023-08-06T08:43:18;0.55;;;0.30;;
34573;SDS011;20809;49.594;8.734;2023-08-06T08:46:21;1.60;;;0.45;;
34573;SDS011;20809;49.594;8.734;2023-08-06T08:49:23;0.82;;;0.40;;
34573;SDS011;20809;49.594;8.734;2023-08-06T08:52:24;1.67;;;1.17;;
34573;SDS011;20809;49.594;8.734;2023-08-06T08:55:26;0.95;;;0.40;;
34573;SDS011;20809;49.594;8.734;2023-08-06T08:58:27;0.63;;;0.40;;
34573;SDS011;20809;49.594;8.734;2023-08-06T09:01:28;1.67;;;0.38;;
34573;SDS011;20809;49.594;8.734;2023-08-06T09:07:32;0.20;;;0.20;;
34573;SDS011;20809;49.594;8.734;2023-08-06T09:10:52;0.20;;;0.20;;
34573;SDS011;20809;49.594;8.734;2023-08-06T09:13:54;0.25;;;0.20;;
34573;SDS011;20809;49.594;8.734;2023-08-06T09:16:56;0.60;;;0.30;;
34573;SDS011;20809;49.594;8.734;2023-08-06T09:19:57;0.25;;;0.25;;
34573;SDS011;20809;49.594;8.734;2023-08-06T09:22:59;0.30;;;0.30;;
34573;SDS011;20809;49.594;8.734;2023-08-06T09:26:10;0.30;;;0.30;;
34573;SDS011;20809;49.594;8.734;2023-08-06T09:29:15;0.22;;;0.22;;
34573;SDS011;20809;49.594;8.734;2023-08-06T09:32:15;1.13;;;0.50;;
34573;SDS011;20809;49.594;8.734;2023-08-06T09:35:16;0.40;;;0.30;;
34573;SDS011;20809;49.594;8.734;2023-08-06T09:38:18;0.57;;;0.30;;
34573;SDS011;20809;49.594;8.734;2023-08-06T09:41:28;1.13;;;0.32;;
34573;SDS011;20809;49.594;8.734;2023-08-06T09:44:29;4.85;;;0.43;;
34573;SDS011;20809;49.594;8.734;2023-08-06T09:47:31;0.52;;;0.47;;
34573;SDS011;20809;49.594;8.734;2023-08-06T09:50:32;0.80;;;0.30;;
34573;SDS011;20809;49.594;8.734;2023-08-06T09:53:37;0.75;;;0.70;;
34573;SDS011;20809;49.594;8.734;2023-08-06T09:56:39;0.45;;;0.30;;
34573;SDS011;20809;49.594;8.734;2023-08-06T09:59:42;1.10;;;0.73;;
34573;SDS011;20809;49.594;8.734;2023-08-06T10:02:43;1.67;;;0.40;;
34573;SDS011;20809;49.594;8.734;2023-08-06T10:05:45;1.58;;;1.20;;
34573;SDS011;20809;49.594;8.734;2023-08-06T10:11:48;0.70;;;0.50;;
34573;SDS011;20809;49.594;8.734;2023-08-06T10:14:53;0.57;;;0.50;;
34573;SDS011;20809;49.594;8.734;2023-08-06T10:17:56;0.30;;;0.30;;
34573;SDS011;20809;49.594;8.734;2023-08-06T10:20:59;1.48;;;1.27;;
34573;SDS011;20809;49.594;8.734;2023-08-06T10:24:00;2.00;;;1.00;;
34573;SDS011;20809;49.594;8.734;2023-08-06T10:27:02;0.82;;;0.82;;
34573;SDS011;20809;49.594;8.734;2023-08-06T10:30:21;2.45;;;1.00;;
34573;SDS011;20809;49.594;8.734;2023-08-06T10:33:24;0.70;;;0.57;;
34573;SDS011;20809;49.594;8.734;2023-08-06T10:36:44;1.40;;;1.30;;
34573;SDS011;20809;49.594;8.734;2023-08-06T10:39:48;0.82;;;0.70;;
34573;SDS011;20809;49.594;8.734;2023-08-06T10:42:50;0.73;;;0.30;;
34573;SDS011;20809;49.594;8.734;2023-08-06T10:45:51;0.20;;;0.20;;
34573;SDS011;20809;49.594;8.734;2023-08-06T10:48:52;0.20;;;0.20;;
34573;SDS011;20809;49.594;8.734;2023-08-06T10:51:53;0.13;;;0.13;;
34573;SDS011;20809;49.594;8.734;2023-08-06T10:54:54;0.10;;;0.10;;
34573;SDS011;20809;49.594;8.734;2023-08-06T10:57:55;0.98;;;0.20;;
34573;SDS011;20809;49.594;8.734;2023-08-06T11:00:57;0.20;;;0.10;;
34573;SDS011;20809;49.594;8.734;2023-08-06T11:04:02;0.10;;;0.10;;
34573;SDS011;20809;49.594;8.734;2023-08-06T11:07:06;3.38;;;0.95;;
34573;SDS011;20809;49.594;8.734;2023-08-06T11:10:08;0.98;;;0.60;;
34573;SDS011;20809;49.594;8.734;2023-08-06T11:13:10;0.98;;;0.70;;
34573;SDS011;20809;49.594;8.734;2023-08-06T11:16:10;0.40;;;0.30;;
34573;SDS011;20809;49.594;8.734;2023-08-06T11:19:14;0.50;;;0.47;;
34573;SDS011;20809;49.594;8.734;2023-08-06T11:22:16;0.20;;;0.20;;
34573;SDS011;20809;49.594;8.734;2023-08-06T11:25:20;0.70;;;0.57;;
34573;SDS011;20809;49.594;8.734;2023-08-06T11:28:21;0.40;;;0.30;;
34573;SDS011;20809;49.594;8.734;2023-08-06T11:31:23;0.65;;;0.40;;
34573;SDS011;20809;49.594;8.734;2023-08-06T11:34:24;0.47;;;0.30;;
34573;SDS011;20809;49.594;8.734;2023-08-06T11:37:24;0.40;;;0.40;;
34573;SDS011;20809;49.594;8.734;2023-08-06T11:40:25;2.47;;;1.13;;
34573;SDS011;20809;49.594;8.734;2023-08-06T11:43:26;0.30;;;0.30;;
34573;SDS011;20809;49.594;8.734;2023-08-06T11:46:26;0.50;;;0.20;;
34573;SDS011;20809;49.594;8.734;2023-08-06T11:49:47;0.97;;;0.40;;
34573;SDS011;20809;49.594;8.734;2023-08-06T11:52:49;0.75;;;0.40;;
34573;SDS011;20809;49.594;8.734;2023-08-06T11:56:01;1.10;;;0.30;;
34573;SDS011;20809;49.594;8.734;2023-08-06T11:59:02;0.40;;;0.40;;
34573;SDS011;20809;49.594;8.734;2023-08-06T12:02:03;0.28;;;0.25;;
34573;SDS011;20809;49.594;8.734;2023-08-06T12:05:17;0.68;;;0.40;;
34573;SDS011;20809;49.594;8.734;2023-08-06T12:08:20;1.20;;;0.30;;
34573;SDS011;20809;49.594;8.734;2023-08-06T12:11:26;0.30;;;0.30;;
34573;SDS011;20809;49.594;8.734;2023-08-06T12:14:26;1.77;;;0.35;;
34573;SDS011;20809;49.594;8.734;2023-08-06T12:17:27;0.15;;;0.15;;
34573;SDS011;20809;49.594;8.734;2023-08-06T12:20:27;2.45;;;0.32;;
34573;SDS011;20809;49.594;8.734;2023-08-06T12:23:31;0.20;;;0.20;;
34573;SDS011;20809;49.594;8.734;2023-08-06T12:26:33;0.40;;;0.40;;
34573;SDS011;20809;49.594;8.734;2023-08-06T12:29:33;2.72;;;0.32;;
34573;SDS011;20809;49.594;8.734;2023-08-06T12:32:34;1.58;;;0.20;;
34573;SDS011;20809;49.594;8.734;2023-08-06T12:35:35;0.40;;;0.40;;
34573;SDS011;20809;49.594;8.734;2023-08-06T12:38:38;0.70;;;0.70;;
34573;SDS011;20809;49.594;8.734;2023-08-06T12:41:38;0.82;;;0.40;;
34573;SDS011;20809;49.594;8.734;2023-08-06T12:44:39;0.47;;;0.37;;
34573;SDS011;20809;49.594;8.734;2023-08-06T12:47:40;0.20;;;0.20;;
34573;SDS011;20809;49.594;8.734;2023-08-06T12:50:41;1.75;;;0.30;;
34573;SDS011;20809;49.594;8.734;2023-08-06T12:53:41;0.32;;;0.22;;
34573;SDS011;20809;49.594;8.734;2023-08-06T12:56:42;1.05;;;0.40;;
34573;SDS011;20809;49.594;8.734;2023-08-06T12:59:43;0.73;;;0.30;;
34573;SDS011;20809;49.594;8.734;2023-08-06T13:02:44;1.90;;;0.60;;
34573;SDS011;20809;49.594;8.734;2023-08-06T13:05:44;0.50;;;0.50;;
34573;SDS011;20809;49.594;8.734;2023-08-06T13:08:45;0.90;;;0.80;;
34573;SDS011;20809;49.594;8.734;2023-08-06T13:11:46;0.50;;;0.50;;
34573;SDS011;20809;49.594;8.734;2023-08-06T13:14:50;0.65;;;0.30;;
34573;SDS011;20809;49.594;8.734;2023-08-06T13:17:50;0.40;;;0.40;;
34573;SDS011;20809;49.594;8.734;2023-08-06T13:20:52;0.47;;;0.40;;
34573;SDS011;20809;49.594;8.734;2023-08-06T13:23:54;2.78;;;0.50;;
34573;SDS011;20809;49.594;8.734;2023-08-06T13:26:55;3.13;;;0.83;;
34573;SDS011;20809;49.594;8.734;2023-08-06T13:29:55;0.60;;;0.50;;
34573;SDS011;20809;49.594;8.734;2023-08-06T13:32:56;5.53;;;0.60;;
34573;SDS011;20809;49.594;8.734;2023-08-06T13:35:57;10.90;;;1.20;;
34573;SDS011;20809;49.594;8.734;2023-08-06T13:38:57;1.52;;;0.60;;
34573;SDS011;20809;49.594;8.734;2023-08-06T13:41:58;0.82;;;0.60;;
34573;SDS011;20809;49.594;8.734;2023-08-06T13:44:59;1.60;;;0.30;;
34573;SDS011;20809;49.594;8.734;2023-08-06T13:48:03;0.90;;;0.40;;
34573;SDS011;20809;49.594;8.734;2023-08-06T13:51:06;0.90;;;0.30;;
34573;SDS011;20809;49.594;8.734;2023-08-06T13:54:07;0.98;;;0.30;;
34573;SDS011;20809;49.594;8.734;2023-08-06T13:57:08;1.55;;;0.35;;
34573;SDS011;20809;49.594;8.734;2023-08-06T14:00:08;3.58;;;0.63;;
34573;SDS011;20809;49.594;8.734;2023-08-06T14:03:09;0.47;;;0.32;;
34573;SDS011;20809;49.594;8.734;2023-08-06T14:06:10;1.00;;;0.30;;
34573;SDS011;20809;49.594;8.734;2023-08-06T14:09:11;0.20;;;0.20;;
34573;SDS011;20809;49.594;8.734;2023-08-06T14:12:14;1.38;;;0.40;;
34573;SDS011;20809;49.594;8.734;2023-08-06T14:15:14;1.42;;;0.40;;
34573;SDS011;20809;49.594;8.734;2023-08-06T14:18:15;0.55;;;0.40;;
34573;SDS011;20809;49.594;8.734;2023-08-06T14:21:16;0.45;;;0.35;;
34573;SDS011;20809;49.594;8.734;2023-08-06T14:24:17;0.95;;;0.63;;
34573;SDS011;20809;49.594;8.734;2023-08-06T14:27:18;0.75;;;0.30;;
34573;SDS011;20809;49.594;8.734;2023-08-06T14:30:18;2.88;;;0.30;;
34573;SDS011;20809;49.594;8.734;2023-08-06T14:33:19;1.25;;;0.50;;
34573;SDS011;20809;49.594;8.734;2023-08-06T14:36:20;1.83;;;0.32;;
34573;SDS011;20809;49.594;8.734;2023-08-06T14:39:21;0.28;;;0.28;;
34573;SDS011;20809;49.594;8.734;2023-08-06T14:42:21;1.05;;;0.40;;
34573;SDS011;20809;49.594;8.734;2023-08-06T14:45:22;1.05;;;0.77;;
34573;SDS011;20809;49.594;8.734;2023-08-06T14:48:22;0.53;;;0.53;;
34573;SDS011;20809;49.594;8.734;2023-08-06T14:51:23;0.32;;;0.32;;
34573;SDS011;20809;49.594;8.734;2023-08-06T14:54:24;2.08;;;0.30;;
34573;SDS011;20809;49.594;8.734;2023-08-06T14:57:25;0.68;;;0.40;;
34573;SDS011;20809;49.594;8.734;2023-08-06T15:00:27;1.42;;;0.32;;
34573;SDS011;20809;49.594;8.734;2023-08-06T15:03:28;0.17;;;0.13;;
34573;SDS011;20809;49.594;8.734;2023-08-06T15:06:31;1.48;;;0.40;;
34573;SDS011;20809;49.594;8.734;2023-08-06T15:09:31;0.40;;;0.40;;
34573;SDS011;20809;49.594;8.734;2023-08-06T15:12:32;0.22;;;0.22;;
34573;SDS011;20809;49.594;8.734;2023-08-06T15:15:33;3.63;;;0.30;;
34573;SDS011;20809;49.594;8.734;2023-08-06T15:18:33;0.70;;;0.35;;
34573;SDS011;20809;49.594;8.734;2023-08-06T15:21:34;0.57;;;0.40;;
34573;SDS011;20809;49.594;8.734;2023-08-06T15:24:35;0.50;;;0.40;;
34573;SDS011;20809;49.594;8.734;2023-08-06T15:27:41;1.77;;;0.30;;
34573;SDS011;20809;49.594;8.734;2023-08-06T15:30:49;0.85;;;0.45;;
34573;SDS011;20809;49.594;8.734;2023-08-06T15:33:51;0.55;;;0.30;;
34573;SDS011;20809;49.594;8.734;2023-08-06T15:36:51;0.52;;;0.50;;
34573;SDS011;20809;49.594;8.734;2023-08-06T15:39:52;0.75;;;0.22;;
34573;SDS011;20809;49.594;8.734;2023-08-06T15:42:53;0.70;;;0.40;;
34573;SDS011;20809;49.594;8.734;2023-08-06T15:45:53;0.83;;;0.50;;
34573;SDS011;20809;49.594;8.734;2023-08-06T15:48:54;1.03;;;0.40;;
34573;SDS011;20809;49.594;8.734;2023-08-06T15:51:54;1.08;;;0.30;;
34573;SDS011;20809;49.594;8.734;2023-08-06T15:54:55;1.38;;;0.32;;
34573;SDS011;20809;49.594;8.734;2023-08-06T15:57:59;0.55;;;0.30;;
34573;SDS011;20809;49.594;8.734;2023-08-06T16:00:59;0.40;;;0.35;;
34573;SDS011;20809;49.594;8.734;2023-08-06T16:04:00;1.20;;;0.50;;
34573;SDS011;20809;49.594;8.734;2023-08-06T16:07:01;1.60;;;0.47;;
34573;SDS011;20809;49.594;8.734;2023-08-06T16:10:01;0.87;;;0.50;;
34573;SDS011;20809;49.594;8.734;2023-08-06T16:13:02;0.88;;;0.40;;
34573;SDS011;20809;49.594;8.734;2023-08-06T16:16:03;1.37;;;0.43;;
34573;SDS011;20809;49.594;8.734;2023-08-06T16:19:06;0.57;;;0.40;;
34573;SDS011;20809;49.594;8.734;2023-08-06T16:22:07;1.50;;;0.47;;
34573;SDS011;20809;49.594;8.734;2023-08-06T16:25:08;0.65;;;0.47;;
34573;SDS011;20809;49.594;8.734;2023-08-06T16:28:12;0.93;;;0.50;;
34573;SDS011;20809;49.594;8.734;2023-08-06T16:31:13;1.42;;;0.20;;
34573;SDS011;20809;49.594;8.734;2023-08-06T16:34:13;2.78;;;0.40;;
34573;SDS011;20809;49.594;8.734;2023-08-06T16:37:14;0.77;;;0.30;;
34573;SDS011;20809;49.594;8.734;2023-08-06T16:40:15;0.32;;;0.30;;
34573;SDS011;20809;49.594;8.734;2023-08-06T16:43:16;0.65;;;0.40;;
34573;SDS011;20809;49.594;8.734;2023-08-06T16:46:16;1.95;;;0.65;;
34573;SDS011;20809;49.594;8.734;2023-08-06T16:49:17;1.38;;;0.47;;
34573;SDS011;20809;49.594;8.734;2023-08-06T16:52:18;0.60;;;0.55;;
34573;SDS011;20809;49.594;8.734;2023-08-06T16:55:21;2.47;;;0.40;;
34573;SDS011;20809;49.594;8.734;2023-08-06T16:58:22;2.15;;;0.90;;
34573;SDS011;20809;49.594;8.734;2023-08-06T17:04:24;0.73;;;0.50;;
34573;SDS011;20809;49.594;8.734;2023-08-06T17:07:24;0.30;;;0.30;;
34573;SDS011;20809;49.594;8.734;2023-08-06T17:10:25;1.27;;;0.57;;
34573;SDS011;20809;49.594;8.734;2023-08-06T17:13:25;1.70;;;0.60;;
34573;SDS011;20809;49.594;8.734;2023-08-06T17:16:26;0.60;;;0.60;;
34573;SDS011;20809;49.594;8.734;2023-08-06T17:19:27;0.60;;;0.60;;
34573;SDS011;20809;49.594;8.734;2023-08-06T17:22:27;3.80;;;1.20;;
34573;SDS011;20809;49.594;8.734;2023-08-06T17:25:30;3.55;;;0.80;;
34573;SDS011;20809;49.594;8.734;2023-08-06T17:28:31;1.17;;;0.95;;
34573;SDS011;20809;49.594;8.734;2023-08-06T17:31:32;0.93;;;0.77;;
34573;SDS011;20809;49.594;8.734;2023-08-06T17:34:32;2.57;;;1.57;;
34573;SDS011;20809;49.594;8.734;2023-08-06T17:37:33;0.80;;;0.80;;
34573;SDS011;20809;49.594;8.734;2023-08-06T17:40:33;2.13;;;0.80;;
34573;SDS011;20809;49.594;8.734;2023-08-06T17:43:34;0.80;;;0.80;;
34573;SDS011;20809;49.594;8.734;2023-08-06T17:46:35;2.33;;;0.80;;
34573;SDS011;20809;49.594;8.734;2023-08-06T17:49:35;0.70;;;0.70;;
34573;SDS011;20809;49.594;8.734;2023-08-06T17:52:36;0.85;;;0.70;;
34573;SDS011;20809;49.594;8.734;2023-08-06T17:55:37;0.68;;;0.50;;
34573;SDS011;20809;49.594;8.734;2023-08-06T17:58:38;0.90;;;0.68;;
34573;SDS011;20809;49.594;8.734;2023-08-06T18:01:38;1.52;;;0.60;;
34573;SDS011;20809;49.594;8.734;2023-08-06T18:04:39;1.17;;;0.68;;
34573;SDS011;20809;49.594;8.734;2023-08-06T18:07:41;0.63;;;0.60;;
34573;SDS011;20809;49.594;8.734;2023-08-06T18:10:43;3.38;;;0.70;;
34573;SDS011;20809;49.594;8.734;2023-08-06T18:13:44;2.13;;;0.65;;
34573;SDS011;20809;49.594;8.734;2023-08-06T18:16:44;1.60;;;0.50;;
34573;SDS011;20809;49.594;8.734;2023-08-06T18:19:45;0.70;;;0.50;;
34573;SDS011;20809;49.594;8.734;2023-08-06T18:22:45;0.70;;;0.40;;
34573;SDS011;20809;49.594;8.734;2023-08-06T18:25:46;3.83;;;0.55;;
34573;SDS011;20809;49.594;8.734;2023-08-06T18:28:47;0.70;;;0.45;;
34573;SDS011;20809;49.594;8.734;2023-08-06T18:31:48;0.65;;;0.47;;
34573;SDS011;20809;49.594;8.734;2023-08-06T18:34:48;3.88;;;0.60;;
34573;SDS011;20809;49.594;8.734;2023-08-06T18:37:49;2.45;;;0.70;;
34573;SDS011;20809;49.594;8.734;2023-08-06T18:40:55;3.35;;;0.52;;
34573;SDS011;20809;49.594;8.734;2023-08-06T18:43:59;4.57;;;1.63;;
34573;SDS011;20809;49.594;8.734;2023-08-06T18:50:02;0.65;;;0.47;;
34573;SDS011;20809;49.594;8.734;2023-08-06T18:56:04;0.77;;;0.30;;
34573;SDS011;20809;49.594;8.734;2023-08-06T18:59:09;2.42;;;1.20;;